createdAt,value
2018-12-27T00:00:22.427Z,19.57
2018-12-27T00:02:54.978Z,18.33
2018-12-27T00:05:22.771Z,17.90
2018-12-27T00:07:51.998Z,16.70
2018-12-27T00:10:20.922Z,18.90
2018-12-27T00:12:50.418Z,19.00
2018-12-27T00:15:19.359Z,21.87
2018-12-27T00:17:48.508Z,21.40
2018-12-27T00:20:17.573Z,20.17
2018-12-27T00:22:46.421Z,19.17
2018-12-27T00:25:15.865Z,18.13
2018-12-27T00:27:44.948Z,18.90
2018-12-27T00:30:14.299Z,20.13
2018-12-27T00:32:43.808Z,20.03
2018-12-27T00:35:13.515Z,17.87
2018-12-27T00:37:43.149Z,19.20
2018-12-27T00:40:12.166Z,18.87
2018-12-27T00:42:41.753Z,18.50
2018-12-27T00:45:11.337Z,18.57
2018-12-27T00:47:40.641Z,20.33
2018-12-27T00:50:09.958Z,20.33
2018-12-27T00:52:39.198Z,18.63
2018-12-27T00:55:08.167Z,19.43
2018-12-27T00:57:38.045Z,19.70
2018-12-27T01:00:07.547Z,19.53
2018-12-27T01:02:37.597Z,19.33
2018-12-27T01:05:07.487Z,19.33
2018-12-27T01:07:37.094Z,19.50
2018-12-27T01:10:06.397Z,18.33
2018-12-27T01:12:35.703Z,19.27
2018-12-27T01:15:05.023Z,19.03
2018-12-27T01:17:34.629Z,18.20
2018-12-27T01:20:03.933Z,18.47
2018-12-27T01:22:33.520Z,18.47
2018-12-27T01:25:03.069Z,18.60
2018-12-27T01:27:32.041Z,18.17
2018-12-27T01:30:01.341Z,19.07
2018-12-27T01:32:30.316Z,19.57
2018-12-27T01:34:59.288Z,19.07
2018-12-27T01:37:28.352Z,18.40
2018-12-27T01:39:57.913Z,17.70
2018-12-27T01:42:26.900Z,16.87
2018-12-27T01:44:56.233Z,16.77
2018-12-27T01:47:25.548Z,17.23
2018-12-27T01:49:54.804Z,16.67
2018-12-27T01:52:24.248Z,17.27
2018-12-27T01:54:53.241Z,17.13
2018-12-27T01:57:23.348Z,16.47
2018-12-27T01:59:52.645Z,15.67
2018-12-27T02:02:22.558Z,16.27
2018-12-27T02:04:51.517Z,16.57
2018-12-27T02:07:20.497Z,16.10
2018-12-27T02:09:50.036Z,16.37
2018-12-27T02:12:19.954Z,16.37
2018-12-27T02:14:49.177Z,16.67
2018-12-27T02:17:18.476Z,15.70
2018-12-27T02:19:47.860Z,15.57
2018-12-27T02:22:16.850Z,16.70
2018-12-27T02:24:45.826Z,16.50
2018-12-27T02:27:15.180Z,17.30
2018-12-27T02:29:44.732Z,16.73
2018-12-27T02:32:14.782Z,16.50
2018-12-27T02:34:43.754Z,15.93
2018-12-27T02:37:13.231Z,16.20
2018-12-27T02:39:42.475Z,16.80
2018-12-27T02:42:11.453Z,15.83
2018-12-27T02:44:40.699Z,16.53
2018-12-27T02:47:10.317Z,15.67
2018-12-27T02:49:39.601Z,15.80
2018-12-27T02:52:09.209Z,18.30
2018-12-27T02:54:38.552Z,17.90
2018-12-27T02:57:07.528Z,19.97
2018-12-27T02:59:36.852Z,18.67
2018-12-27T03:02:05.822Z,18.47
2018-12-27T03:04:35.101Z,19.13
2018-12-27T03:07:04.685Z,18.20
2018-12-27T03:09:34.496Z,18.23
2018-12-27T03:12:04.758Z,18.60
2018-12-27T03:14:33.986Z,18.27
2018-12-27T03:17:03.641Z,17.90
2018-12-27T03:19:32.971Z,19.60
2018-12-27T03:22:02.280Z,20.07
2018-12-27T03:24:31.579Z,18.67
2018-12-27T03:27:01.145Z,18.67
2018-12-27T03:29:30.378Z,17.73
2018-12-27T03:31:59.586Z,18.50
2018-12-27T03:34:28.814Z,17.70
2018-12-27T03:36:58.393Z,18.10
2018-12-27T03:39:27.379Z,18.17
2018-12-27T03:41:56.353Z,17.53
2018-12-27T03:44:25.841Z,18.80
2018-12-27T03:46:54.831Z,18.60
2018-12-27T03:49:24.479Z,18.40
2018-12-27T03:51:53.480Z,16.97
2018-12-27T03:54:22.449Z,17.40
2018-12-27T03:56:51.426Z,16.60
2018-12-27T03:59:20.913Z,17.83
2018-12-27T04:01:50.178Z,16.53
2018-12-27T04:04:19.144Z,17.67
2018-12-27T04:06:48.448Z,16.17
2018-12-27T04:09:17.735Z,17.50
2018-12-27T04:11:47.176Z,17.57
2018-12-27T04:14:17.149Z,16.63
2018-12-27T04:16:46.009Z,15.97
2018-12-27T04:19:15.137Z,16.93
2018-12-27T04:21:44.073Z,16.23
2018-12-27T04:24:14.398Z,16.23
2018-12-27T04:26:43.544Z,16.43
2018-12-27T04:29:12.394Z,17.33
2018-12-27T04:31:41.849Z,17.53
2018-12-27T04:34:11.246Z,17.37
2018-12-27T04:36:42.156Z,20.80
2018-12-27T04:39:10.997Z,18.97
2018-12-27T04:41:40.857Z,17.83
2018-12-27T04:44:10.244Z,16.67
2018-12-27T04:46:39.708Z,17.27
2018-12-27T04:49:08.552Z,17.13
2018-12-27T04:51:38.065Z,17.57
2018-12-27T04:54:07.185Z,17.30
2018-12-27T04:56:36.697Z,18.03
2018-12-27T04:59:06.313Z,17.53
2018-12-27T05:01:35.258Z,18.30
2018-12-27T05:04:04.215Z,18.07
2018-12-27T05:06:33.025Z,18.77
2018-12-27T05:09:02.485Z,17.77
2018-12-27T05:11:32.219Z,18.60
2018-12-27T05:14:01.076Z,18.17
2018-12-27T05:16:30.297Z,19.03
2018-12-27T05:18:59.561Z,18.27
2018-12-27T05:21:28.802Z,18.47
2018-12-27T05:23:58.062Z,18.93
2018-12-27T05:26:27.226Z,19.37
2018-12-27T05:28:56.396Z,20.43
2018-12-27T05:31:25.577Z,20.53
2018-12-27T05:33:54.433Z,19.40
2018-12-27T05:36:23.539Z,18.73
2018-12-27T05:38:52.692Z,20.30
2018-12-27T05:41:22.180Z,19.43
2018-12-27T05:43:51.126Z,20.27
2018-12-27T05:46:20.636Z,20.83
2018-12-27T05:48:50.190Z,19.63
2018-12-27T05:51:19.290Z,20.53
2018-12-27T05:53:48.486Z,19.87
2018-12-27T05:56:17.341Z,22.00
2018-12-27T05:58:46.244Z,21.87
2018-12-27T06:01:15.373Z,24.13
2018-12-27T06:03:44.670Z,23.57
2018-12-27T06:06:14.463Z,24.67
2018-12-27T06:08:44.142Z,21.50
2018-12-27T06:11:13.079Z,23.40
2018-12-27T06:13:41.925Z,23.87
2018-12-27T06:16:11.498Z,22.83
2018-12-27T06:18:41.085Z,23.10
2018-12-27T06:21:10.015Z,22.97
2018-12-27T06:23:39.188Z,22.00
2018-12-27T06:26:08.715Z,22.30
2018-12-27T06:28:38.089Z,23.40
2018-12-27T06:31:07.009Z,22.20
2018-12-27T06:33:35.858Z,21.97
2018-12-27T06:36:04.788Z,22.17
2018-12-27T06:38:33.959Z,21.60
2018-12-27T06:41:03.491Z,21.43
2018-12-27T06:43:32.976Z,22.73
2018-12-27T06:46:02.501Z,21.63
2018-12-27T06:48:31.661Z,21.80
2018-12-27T06:51:00.581Z,23.03
2018-12-27T06:53:29.769Z,22.37
2018-12-27T06:55:59.026Z,23.53
2018-12-27T06:58:28.476Z,22.10
2018-12-27T07:00:57.674Z,21.57
2018-12-27T07:03:27.012Z,21.90
2018-12-27T07:05:56.481Z,22.67
2018-12-27T07:08:25.989Z,23.17
2018-12-27T07:10:55.235Z,23.03
2018-12-27T07:13:24.340Z,22.13
2018-12-27T07:15:53.185Z,23.63
2018-12-27T07:18:22.681Z,20.20
2018-12-27T07:20:51.980Z,20.70
2018-12-27T07:23:21.184Z,24.13
2018-12-27T07:25:50.896Z,22.63
2018-12-27T07:28:20.605Z,20.97
2018-12-27T07:30:49.781Z,21.90
2018-12-27T07:33:18.994Z,23.97
2018-12-27T07:35:47.842Z,21.17
2018-12-27T07:38:17.704Z,23.53
2018-12-27T07:40:46.806Z,22.10
2018-12-27T07:43:16.918Z,22.53
2018-12-27T07:45:46.106Z,26.17
2018-12-27T07:48:15.733Z,24.20
2018-12-27T07:50:45.209Z,22.13
2018-12-27T07:53:14.471Z,24.93
2018-12-27T07:55:44.012Z,24.27
2018-12-27T07:58:13.284Z,22.67
2018-12-27T08:00:42.317Z,23.03
2018-12-27T08:03:11.845Z,21.40
2018-12-27T08:05:40.727Z,24.57
2018-12-27T08:08:10.288Z,31.80
2018-12-27T08:10:39.441Z,26.50
2018-12-27T08:13:08.461Z,23.60
2018-12-27T08:15:37.636Z,21.77
2018-12-27T08:18:06.838Z,21.37
2018-12-27T08:20:36.038Z,22.00
2018-12-27T08:23:05.335Z,26.03
2018-12-27T08:25:34.654Z,25.00
2018-12-27T08:28:04.696Z,23.40
2018-12-27T08:30:34.296Z,23.17
2018-12-27T08:33:03.208Z,21.70
2018-12-27T08:35:32.350Z,21.90
2018-12-27T08:38:01.857Z,21.00
2018-12-27T08:40:31.362Z,22.57
2018-12-27T08:43:00.755Z,23.07
2018-12-27T08:45:30.273Z,22.00
2018-12-27T08:47:59.577Z,22.40
2018-12-27T08:50:29.081Z,22.20
2018-12-27T08:52:58.275Z,22.17
2018-12-27T08:55:27.843Z,22.07
2018-12-27T08:57:57.468Z,23.13
2018-12-27T09:00:26.377Z,22.60
2018-12-27T09:02:55.582Z,23.43
2018-12-27T09:05:24.814Z,24.53
2018-12-27T09:07:54.263Z,23.30
2018-12-27T09:10:24.039Z,23.10
2018-12-27T09:12:53.215Z,23.43
2018-12-27T09:15:22.779Z,27.03
2018-12-27T09:17:52.167Z,26.77
2018-12-27T09:20:21.389Z,28.67
2018-12-27T09:22:50.815Z,26.50
2018-12-27T09:25:19.662Z,24.20
2018-12-27T09:27:48.948Z,24.30
2018-12-27T09:30:18.432Z,28.10
2018-12-27T09:32:47.917Z,27.90
2018-12-27T09:35:17.142Z,35.43
2018-12-27T09:37:46.932Z,36.93
2018-12-27T09:40:16.188Z,36.63
2018-12-27T09:42:45.632Z,29.00
2018-12-27T09:45:15.245Z,26.47
2018-12-27T09:47:44.182Z,28.37
2018-12-27T09:50:13.740Z,29.43
2018-12-27T09:52:43.557Z,25.13
2018-12-27T09:55:12.868Z,24.87
2018-12-27T09:57:42.627Z,25.37
2018-12-27T10:00:11.818Z,22.70
2018-12-27T10:02:41.437Z,25.03
2018-12-27T10:05:10.525Z,25.33
2018-12-27T10:07:39.633Z,25.90
2018-12-27T10:10:09.095Z,25.90
2018-12-27T10:12:38.275Z,24.40
2018-12-27T10:15:08.924Z,24.33
2018-12-27T10:17:38.768Z,24.80
2018-12-27T10:20:08.552Z,24.40
2018-12-27T10:22:38.122Z,23.77
2018-12-27T10:25:07.344Z,24.57
2018-12-27T10:27:37.461Z,22.93
2018-12-27T10:30:06.893Z,24.03
2018-12-27T10:32:36.337Z,24.87
2018-12-27T10:35:06.306Z,22.20
2018-12-27T10:37:35.465Z,20.93
2018-12-27T10:40:06.046Z,23.40
2018-12-27T10:42:35.218Z,22.73
2018-12-27T10:45:04.723Z,24.13
2018-12-27T10:47:33.623Z,22.97
2018-12-27T10:50:02.812Z,21.90
2018-12-27T10:52:32.009Z,22.10
2018-12-27T10:55:01.229Z,22.50
2018-12-27T10:57:30.717Z,20.43
2018-12-27T11:00:00.168Z,21.40
2018-12-27T11:02:29.764Z,21.60
2018-12-27T11:04:59.123Z,23.87
2018-12-27T11:07:29.215Z,23.40
2018-12-27T11:09:58.760Z,21.87
2018-12-27T11:12:27.923Z,22.43
2018-12-27T11:14:56.835Z,22.90
2018-12-27T11:17:25.691Z,21.23
2018-12-27T11:19:54.540Z,22.90
2018-12-27T11:22:23.724Z,15.30
2018-12-27T11:24:52.637Z,23.63
2018-12-27T11:27:21.809Z,22.20
2018-12-27T11:29:50.654Z,18.80
2018-12-27T11:32:20.011Z,20.67
2018-12-27T11:34:49.193Z,18.57
2018-12-27T11:37:18.406Z,22.03
2018-12-27T11:39:47.341Z,20.90
2018-12-27T11:42:16.451Z,21.40
2018-12-27T11:44:45.821Z,21.70
2018-12-27T11:47:15.189Z,20.93
2018-12-27T11:49:44.889Z,18.93
2018-12-27T11:52:13.986Z,20.50
2018-12-27T11:54:42.903Z,23.37
2018-12-27T11:57:12.102Z,20.53
2018-12-27T11:59:41.629Z,21.97
2018-12-27T12:02:10.651Z,20.57
2018-12-27T12:04:40.552Z,17.23
2018-12-27T12:07:09.593Z,18.10
2018-12-27T12:09:39.124Z,18.93
2018-12-27T12:12:09.957Z,19.90
2018-12-27T12:14:39.156Z,20.20
2018-12-27T12:17:08.354Z,18.57
2018-12-27T12:19:37.205Z,20.37
2018-12-27T12:22:08.524Z,19.77
2018-12-27T12:24:37.794Z,18.23
2018-12-27T12:27:07.346Z,18.93
2018-12-27T12:29:37.164Z,21.20
2018-12-27T12:32:06.478Z,22.80
2018-12-27T12:34:35.499Z,23.30
2018-12-27T12:37:05.242Z,20.77
2018-12-27T12:39:34.743Z,22.20
2018-12-27T12:42:04.420Z,20.50
2018-12-27T12:44:33.847Z,19.77
2018-12-27T12:47:03.600Z,20.30
2018-12-27T12:49:32.753Z,17.80
2018-12-27T12:52:02.112Z,18.63
2018-12-27T12:54:31.688Z,18.40
2018-12-27T12:57:00.566Z,19.63
2018-12-27T12:59:30.269Z,19.53
2018-12-27T13:01:59.183Z,22.73
2018-12-27T13:04:28.457Z,20.90
2018-12-27T13:06:57.707Z,23.80
2018-12-27T13:09:27.237Z,19.00
2018-12-27T13:11:56.370Z,19.57
2018-12-27T13:14:25.668Z,19.90
2018-12-27T13:16:54.763Z,21.63
2018-12-27T13:19:24.059Z,22.10
2018-12-27T13:21:53.345Z,22.40
2018-12-27T13:24:22.996Z,19.47
2018-12-27T13:26:52.587Z,23.53
2018-12-27T13:29:21.881Z,21.30
2018-12-27T13:31:51.488Z,20.63
2018-12-27T13:34:21.301Z,18.50
2018-12-27T13:36:50.172Z,20.23
2018-12-27T13:39:19.617Z,19.70
2018-12-27T13:41:48.545Z,20.23
2018-12-27T13:44:18.408Z,18.70
2018-12-27T13:46:47.711Z,20.60
2018-12-27T13:49:16.609Z,20.10
2018-12-27T13:51:46.312Z,19.73
2018-12-27T13:54:15.490Z,22.60
2018-12-27T13:56:44.818Z,21.50
2018-12-27T13:59:14.386Z,20.30
2018-12-27T14:01:43.694Z,19.83
2018-12-27T14:04:13.444Z,19.70
2018-12-27T14:06:42.628Z,20.53
2018-12-27T14:09:12.142Z,30.10
2018-12-27T14:11:41.644Z,20.63
2018-12-27T14:14:10.814Z,17.70
2018-12-27T14:16:39.764Z,20.83
2018-12-27T14:19:09.530Z,18.10
2018-12-27T14:21:38.743Z,17.93
2018-12-27T14:24:08.183Z,17.90
2018-12-27T14:26:37.175Z,17.73
2018-12-27T14:29:06.452Z,18.50
2018-12-27T14:31:35.446Z,20.90
2018-12-27T14:34:04.905Z,19.23
2018-12-27T14:36:39.674Z,18.63
2018-12-27T14:39:07.054Z,19.93
2018-12-27T14:41:36.017Z,18.97
2018-12-27T14:44:05.343Z,18.27
2018-12-27T14:46:34.306Z,18.70
2018-12-27T14:49:03.858Z,17.90
2018-12-27T14:51:33.081Z,18.27
2018-12-27T14:54:02.898Z,89.30
2018-12-27T14:56:31.744Z,27.27
2018-12-27T14:59:00.992Z,28.00
2018-12-27T15:01:30.209Z,27.30
2018-12-27T15:03:59.474Z,60.00
2018-12-27T15:06:28.477Z,27.77
2018-12-27T15:08:58.029Z,22.43
2018-12-27T15:11:27.389Z,22.03
2018-12-27T15:13:56.732Z,18.77
2018-12-27T15:16:26.340Z,18.27
2018-12-27T15:18:55.971Z,21.50
2018-12-27T15:21:25.228Z,20.90
2018-12-27T15:23:54.552Z,28.53
2018-12-27T15:26:23.417Z,22.10
2018-12-27T15:28:55.588Z,18.53
2018-12-27T15:31:26.123Z,23.70
2018-12-27T15:33:55.025Z,20.83
2018-12-27T15:36:24.235Z,86.10
2018-12-27T15:38:53.414Z,27.50
2018-12-27T15:41:22.957Z,22.87
2018-12-27T15:43:52.083Z,25.07
2018-12-27T15:46:21.424Z,24.07
2018-12-27T15:48:51.048Z,25.13
2018-12-27T15:51:20.618Z,28.93
2018-12-27T15:53:49.803Z,28.63
2018-12-27T15:56:19.361Z,35.00
2018-12-27T15:58:48.684Z,27.67
2018-12-27T16:01:18.268Z,27.93
2018-12-27T16:03:47.469Z,29.07
2018-12-27T16:06:16.771Z,27.03
2018-12-27T16:08:46.059Z,25.90
2018-12-27T16:11:15.061Z,26.90
2018-12-27T16:13:44.780Z,28.20
2018-12-27T16:16:13.990Z,28.80
2018-12-27T16:18:43.173Z,29.73
2018-12-27T16:21:12.617Z,29.33
2018-12-27T16:23:42.084Z,30.47
2018-12-27T16:26:10.956Z,29.97
2018-12-27T16:28:40.670Z,28.50
2018-12-27T16:31:10.015Z,29.37
2018-12-27T16:33:38.877Z,29.57
2018-12-27T16:36:08.184Z,29.63
2018-12-27T16:38:37.388Z,31.07
2018-12-27T16:41:06.425Z,30.50
2018-12-27T16:43:35.437Z,31.20
2018-12-27T16:46:05.200Z,29.83
2018-12-27T16:48:34.481Z,30.77
2018-12-27T16:51:04.055Z,30.40
2018-12-27T16:53:33.397Z,28.97
2018-12-27T16:56:02.591Z,30.67
2018-12-27T16:58:31.848Z,30.10
2018-12-27T17:01:01.177Z,30.47
2018-12-27T17:03:30.477Z,30.37
2018-12-27T17:06:00.004Z,30.87
2018-12-27T17:08:28.939Z,31.40
2018-12-27T17:10:58.961Z,31.67
2018-12-27T17:13:27.935Z,31.13
2018-12-27T17:15:57.271Z,30.13
2018-12-27T17:18:28.023Z,31.03
2018-12-27T17:20:57.310Z,30.07
2018-12-27T17:23:26.594Z,30.60
2018-12-27T17:25:55.692Z,31.57
2018-12-27T17:28:25.097Z,33.33
2018-12-27T17:30:54.192Z,31.10
2018-12-27T17:33:23.291Z,31.83
2018-12-27T17:35:52.827Z,34.17
2018-12-27T17:38:21.673Z,33.20
2018-12-27T17:40:50.526Z,33.00
2018-12-27T17:43:19.375Z,39.57
2018-12-27T17:45:49.024Z,36.77
2018-12-27T17:48:18.768Z,34.67
2018-12-27T17:50:48.345Z,35.50
2018-12-27T17:53:17.268Z,34.80
2018-12-27T17:55:46.888Z,36.37
2018-12-27T17:58:16.555Z,36.53
2018-12-27T18:00:45.927Z,34.50
2018-12-27T18:03:15.076Z,34.03
2018-12-27T18:05:44.334Z,35.77
2018-12-27T18:08:13.732Z,35.03
2018-12-27T18:10:43.212Z,35.30
2018-12-27T18:13:12.237Z,36.57
2018-12-27T18:15:42.076Z,36.33
2018-12-27T18:18:12.151Z,34.73
2018-12-27T18:20:41.929Z,39.53
2018-12-27T18:23:10.905Z,34.93
2018-12-27T18:25:39.837Z,36.33
2018-12-27T18:28:09.043Z,41.83
2018-12-27T18:30:37.979Z,38.63
2018-12-27T18:33:07.589Z,35.07
2018-12-27T18:35:36.787Z,35.63
2018-12-27T18:38:06.293Z,33.70
2018-12-27T18:40:35.229Z,34.97
2018-12-27T18:43:04.552Z,36.17
2018-12-27T18:45:34.044Z,37.63
2018-12-27T18:48:03.257Z,36.70
2018-12-27T18:50:32.411Z,41.77
2018-12-27T18:53:01.613Z,37.37
2018-12-27T18:55:30.461Z,33.67
2018-12-27T18:57:59.346Z,34.70
2018-12-27T19:00:28.680Z,35.17
2018-12-27T19:02:57.811Z,38.03
2018-12-27T19:05:26.658Z,37.03
2018-12-27T19:07:55.892Z,33.87
2018-12-27T19:10:25.406Z,35.17
2018-12-27T19:13:11.693Z,33.77
2018-12-27T19:15:47.653Z,37.47
2018-12-27T19:18:26.798Z,35.27
2018-12-27T19:21:04.670Z,38.53
2018-12-27T19:23:34.059Z,36.30
2018-12-27T19:26:02.961Z,35.87
2018-12-27T19:28:31.829Z,36.00
2018-12-27T19:31:01.028Z,34.83
2018-12-27T19:33:30.866Z,36.07
2018-12-27T19:35:59.708Z,34.50
2018-12-27T19:38:29.249Z,35.23
2018-12-27T19:40:58.500Z,34.17
2018-12-27T19:43:27.736Z,32.90
2018-12-27T19:45:57.243Z,33.30
2018-12-27T19:48:26.769Z,32.90
2018-12-27T19:50:56.049Z,33.73
2018-12-27T19:53:25.679Z,32.27
2018-12-27T19:55:54.529Z,32.97
2018-12-27T19:58:23.736Z,30.43
2018-12-27T20:00:52.851Z,30.67
2018-12-27T20:03:22.220Z,32.33
2018-12-27T20:05:51.659Z,32.73
2018-12-27T20:08:20.892Z,34.97
2018-12-27T20:10:50.173Z,32.73
2018-12-27T20:13:19.371Z,33.33
2018-12-27T20:15:48.882Z,32.30
2018-12-27T20:18:18.278Z,32.67
2018-12-27T20:20:47.201Z,33.27
2018-12-27T20:23:16.064Z,33.50
2018-12-27T20:25:45.245Z,31.50
2018-12-27T20:28:14.341Z,34.33
2018-12-27T20:30:43.377Z,37.30
2018-12-27T20:33:12.261Z,32.60
2018-12-27T20:35:41.722Z,33.13
2018-12-27T20:38:11.515Z,32.33
2018-12-27T20:40:40.792Z,31.90
2018-12-27T20:43:09.944Z,32.63
2018-12-27T20:45:38.806Z,30.33
2018-12-27T20:48:08.746Z,29.67
2018-12-27T20:50:37.891Z,30.70
2018-12-27T20:53:07.377Z,32.07
2018-12-27T20:55:36.697Z,31.60
2018-12-27T20:58:06.032Z,31.20
2018-12-27T21:00:35.320Z,30.67
2018-12-27T21:03:04.582Z,29.47
2018-12-27T21:05:33.962Z,29.97
2018-12-27T21:08:02.805Z,29.07
2018-12-27T21:10:32.924Z,29.50
2018-12-27T21:13:02.035Z,28.63
2018-12-27T21:15:30.895Z,28.63
2018-12-27T21:18:00.084Z,27.77
2018-12-27T21:20:29.189Z,27.77
2018-12-27T21:22:58.785Z,26.83
2018-12-27T21:25:28.150Z,26.43
2018-12-27T21:27:57.589Z,26.27
2018-12-27T21:30:26.927Z,26.37
2018-12-27T21:32:56.180Z,24.80
2018-12-27T21:35:25.584Z,26.37
2018-12-27T21:37:55.221Z,28.20
2018-12-27T21:40:24.406Z,27.20
2018-12-27T21:42:53.345Z,28.07
2018-12-27T21:45:22.269Z,26.43
2018-12-27T21:47:51.124Z,25.53
2018-12-27T21:50:20.276Z,26.03
2018-12-27T21:52:49.198Z,25.23
2018-12-27T21:55:18.477Z,24.57
2018-12-27T21:57:47.382Z,26.07
2018-12-27T22:00:16.442Z,25.73
2018-12-27T22:02:45.669Z,25.03
2018-12-27T22:05:15.563Z,25.60
2018-12-27T22:07:44.774Z,25.50
2018-12-27T22:10:13.853Z,26.13
2018-12-27T22:12:43.289Z,25.33
2018-12-27T22:15:13.189Z,27.93
2018-12-27T22:17:42.052Z,25.90
2018-12-27T22:20:11.434Z,26.90
2018-12-27T22:22:40.661Z,26.77
2018-12-27T22:25:10.191Z,26.13
2018-12-27T22:27:39.043Z,23.17
2018-12-27T22:30:08.285Z,24.53
2018-12-27T22:32:37.533Z,26.20
2018-12-27T22:35:06.567Z,23.27
2018-12-27T22:37:35.757Z,24.80
2018-12-27T22:40:05.308Z,25.03
2018-12-27T22:42:34.257Z,24.63
2018-12-27T22:45:03.914Z,24.90
2018-12-27T22:47:33.711Z,24.30
2018-12-27T22:50:02.895Z,24.40
2018-12-27T22:52:31.743Z,23.47
2018-12-27T22:55:00.878Z,23.50
2018-12-27T22:57:29.980Z,24.80
2018-12-27T22:59:59.083Z,23.50
2018-12-27T23:02:28.377Z,24.00
2018-12-27T23:04:57.570Z,21.80
2018-12-27T23:07:26.774Z,21.97
2018-12-27T23:09:55.963Z,21.20
2018-12-27T23:12:25.456Z,21.27
2018-12-27T23:14:55.221Z,21.43
2018-12-27T23:17:24.969Z,21.00
2018-12-27T23:19:53.910Z,21.53
2018-12-27T23:22:23.073Z,20.60
2018-12-27T23:24:52.261Z,20.97
2018-12-27T23:27:21.396Z,21.23
2018-12-27T23:29:50.660Z,21.17
2018-12-27T23:32:20.152Z,21.30
2018-12-27T23:34:49.411Z,20.00
2018-12-27T23:37:19.207Z,21.50
2018-12-27T23:39:48.396Z,21.07
2018-12-27T23:42:17.252Z,20.20
2018-12-27T23:44:46.459Z,21.50
2018-12-27T23:47:15.695Z,20.30
2018-12-27T23:49:45.307Z,21.23
2018-12-27T23:52:14.591Z,22.33
2018-12-27T23:54:43.852Z,22.67
2018-12-27T23:57:13.297Z,23.83
2018-12-27T23:59:42.675Z,22.90
